Time;durP1;ratioP1;P1;durP2;ratioP2;P2;SDS_P1;SDS_P2;PMS_P1;PMS_P2;Temp;Humidity;BMP_temperature;BMP_pressure;BME280_temperature;BME280_humidity;BME280_pressure;Samples;Min_cycle;Max_cycle;Signal;HPM_P1;HPM_P2
2021/12/22 00:00:55;;;;;;;10.07;3.38;;;;;;;;;;5047099;28;20029;-58
2021/12/22 00:03:22;;;;;;;10.45;3.60;;;;;;;;;;5045618;28;20037;-59
2021/12/22 00:05:50;;;;;;;7.57;3.20;;;;;;;;;;5047100;28;20091;-56
2021/12/22 00:08:17;;;;;;;6.05;2.70;;;;;;;;;;5045775;28;20464;-56
2021/12/22 00:10:45;;;;;;;9.32;3.25;;;;;;;;;;5048126;28;20396;-53
2021/12/22 00:13:10;;;;;;;8.30;3.53;;;;;;;;;;5046086;28;20031;-56
2021/12/22 00:15:36;;;;;;;8.77;3.22;;;;;;;;;;5049478;28;20025;-57
2021/12/22 00:18:03;;;;;;;10.80;3.47;;;;;;;;;;5048754;28;20029;-56
2021/12/22 00:20:31;;;;;;;8.88;3.50;;;;;;;;;;5047090;28;20040;-58
2021/12/22 00:22:57;;;;;;;8.20;3.40;;;;;;;;;;5030889;28;20040;-58
2021/12/22 00:25:25;;;;;;;10.55;3.20;;;;;;;;;;5046569;28;21556;-56
2021/12/22 00:27:52;;;;;;;7.32;3.47;;;;;;;;;;5030797;28;20512;-55
2021/12/22 00:30:18;;;;;;;10.13;4.32;;;;;;;;;;5048123;28;20021;-57
2021/12/22 00:32:50;;;;;;;14.35;4.28;;;;;;;;;;5029583;28;20039;-57
2021/12/22 00:35:19;;;;;;;11.75;4.20;;;;;;;;;;5045474;28;20035;-56
2021/12/22 00:37:45;;;;;;;9.63;4.25;;;;;;;;;;5028244;28;20037;-58
2021/12/22 00:40:10;;;;;;;13.23;4.82;;;;;;;;;;5025403;28;20030;-57
2021/12/22 00:42:36;;;;;;;15.05;5.28;;;;;;;;;;5007505;28;20033;-59
2021/12/22 00:45:03;;;;;;;8.73;3.95;;;;;;;;;;5011284;28;20049;-59
2021/12/22 00:47:30;;;;;;;10.43;3.47;;;;;;;;;;5025550;28;20030;-59
2021/12/22 00:49:57;;;;;;;7.22;3.08;;;;;;;;;;5027250;28;20029;-58
2021/12/22 00:52:23;;;;;;;9.23;3.90;;;;;;;;;;5009944;28;20068;-56
2021/12/22 00:54:49;;;;;;;8.15;3.10;;;;;;;;;;5024627;28;20029;-54
2021/12/22 00:57:16;;;;;;;8.50;3.22;;;;;;;;;;5027096;28;20378;-58
2021/12/22 00:59:43;;;;;;;6.53;2.55;;;;;;;;;;5026087;28;20021;-55
2021/12/22 01:02:10;;;;;;;5.18;2.78;;;;;;;;;;5009999;28;20025;-54
2021/12/22 01:04:36;;;;;;;9.95;3.00;;;;;;;;;;5026228;28;20029;-56
2021/12/22 01:07:03;;;;;;;7.55;2.78;;;;;;;;;;5026451;28;20033;-59
2021/12/22 01:09:28;;;;;;;8.40;2.85;;;;;;;;;;5026008;28;20131;-57
2021/12/22 01:11:54;;;;;;;7.38;2.92;;;;;;;;;;5026370;28;20122;-57
2021/12/22 01:14:21;;;;;;;6.60;2.85;;;;;;;;;;5025288;28;20675;-59
2021/12/22 01:16:49;;;;;;;5.72;2.63;;;;;;;;;;5023171;28;20108;-58
2021/12/22 01:19:22;;;;;;;8.52;2.90;;;;;;;;;;5027276;28;20469;-56
2021/12/22 01:22:00;;;;;;;11.50;2.90;;;;;;;;;;5026505;28;20064;-57
2021/12/22 01:24:31;;;;;;;5.75;2.88;;;;;;;;;;5026441;28;20427;-58
2021/12/22 01:27:04;;;;;;;7.32;2.60;;;;;;;;;;5025377;28;20040;-57
2021/12/22 01:29:31;;;;;;;5.07;2.80;;;;;;;;;;5027610;28;20048;-59
2021/12/22 01:31:58;;;;;;;8.48;2.78;;;;;;;;;;5010627;28;20033;-58
2021/12/22 01:34:24;;;;;;;7.05;2.70;;;;;;;;;;5024157;28;20064;-58
2021/12/22 01:36:49;;;;;;;5.43;3.03;;;;;;;;;;5026957;28;20052;-55
2021/12/22 01:39:15;;;;;;;5.60;2.80;;;;;;;;;;5025508;28;20026;-58
2021/12/22 01:41:40;;;;;;;3.75;2.22;;;;;;;;;;5023935;28;20498;-58
2021/12/22 01:44:08;;;;;;;7.38;2.28;;;;;;;;;;5023560;28;20039;-57
2021/12/22 01:49:53;;;;;;;11.13;2.88;;;;;;;;;;5025743;28;20110;-57
2021/12/22 01:52:20;;;;;;;6.22;2.20;;;;;;;;;;5018162;28;20041;-57
2021/12/22 01:54:48;;;;;;;4.88;2.40;;;;;;;;;;5023987;28;20524;-54
2021/12/22 01:57:14;;;;;;;6.40;2.42;;;;;;;;;;5024698;28;20018;-54
2021/12/22 01:59:42;;;;;;;7.80;3.05;;;;;;;;;;5026276;28;20066;-57
2021/12/22 02:02:09;;;;;;;7.15;2.60;;;;;;;;;;5026038;28;20030;-53
2021/12/22 02:04:37;;;;;;;3.30;1.98;;;;;;;;;;5024265;28;20087;-57
2021/12/22 02:07:03;;;;;;;4.43;2.42;;;;;;;;;;5025732;28;20167;-58
2021/12/22 02:12:01;;;;;;;3.97;1.90;;;;;;;;;;5025863;28;20068;-59
2021/12/22 02:14:26;;;;;;;8.77;2.35;;;;;;;;;;5024795;28;20056;-59
2021/12/22 02:16:51;;;;;;;5.85;2.40;;;;;;;;;;5024510;28;20098;-56
2021/12/22 02:19:17;;;;;;;5.65;2.40;;;;;;;;;;5024969;28;20187;-56
2021/12/22 02:21:49;;;;;;;8.48;2.72;;;;;;;;;;5024968;28;20086;-59
2021/12/22 02:24:14;;;;;;;7.00;2.40;;;;;;;;;;5009186;28;20056;-58
2021/12/22 02:26:49;;;;;;;4.63;2.22;;;;;;;;;;5025361;28;20064;-58
2021/12/22 02:29:21;;;;;;;7.32;2.25;;;;;;;;;;5024143;28;20071;-58
2021/12/22 02:32:02;;;;;;;3.78;2.00;;;;;;;;;;5025155;28;20029;-54
2021/12/22 02:34:28;;;;;;;6.13;2.33;;;;;;;;;;5025650;28;20381;-55
2021/12/22 02:36:59;;;;;;;9.90;2.58;;;;;;;;;;5025082;28;20029;-58
2021/12/22 02:39:24;;;;;;;4.57;2.10;;;;;;;;;;5026066;28;20114;-58
2021/12/22 02:41:50;;;;;;;5.75;2.13;;;;;;;;;;5024136;28;20041;-58
2021/12/22 02:44:15;;;;;;;4.88;1.98;;;;;;;;;;5025382;28;20365;-59
2021/12/22 02:46:41;;;;;;;6.35;2.10;;;;;;;;;;5027860;28;20098;-51
2021/12/22 02:49:09;;;;;;;3.83;1.98;;;;;;;;;;5008819;28;20048;-58
2021/12/22 02:51:35;;;;;;;3.55;2.10;;;;;;;;;;5023784;28;20037;-54
2021/12/22 02:56:34;;;;;;;5.85;2.53;;;;;;;;;;5024456;28;20033;-58
2021/12/22 03:04:12;;;;;;;5.57;2.28;;;;;;;;;;5025560;28;20467;-53
2021/12/22 03:09:24;;;;;;;4.20;2.13;;;;;;;;;;5023925;28;20529;-58
2021/12/22 03:11:51;;;;;;;5.20;2.45;;;;;;;;;;5024962;28;20036;-57
2021/12/22 03:14:18;;;;;;;7.63;3.03;;;;;;;;;;5022688;28;20036;-59
2021/12/22 03:16:44;;;;;;;5.22;2.63;;;;;;;;;;5026209;28;20033;-56
2021/12/22 03:19:12;;;;;;;7.18;2.20;;;;;;;;;;5007995;28;20037;-58
2021/12/22 03:21:40;;;;;;;8.40;2.90;;;;;;;;;;5024416;28;20029;-56
2021/12/22 03:24:06;;;;;;;5.03;2.30;;;;;;;;;;5024436;28;20029;-58
2021/12/22 03:26:32;;;;;;;4.82;2.58;;;;;;;;;;5025485;28;20041;-58
2021/12/22 03:28:57;;;;;;;6.25;2.45;;;;;;;;;;5026227;28;20044;-56
2021/12/22 03:31:22;;;;;;;5.53;2.78;;;;;;;;;;5023988;28;20045;-58
2021/12/22 03:33:48;;;;;;;13.57;3.47;;;;;;;;;;5025813;28;20034;-55
2021/12/22 03:36:14;;;;;;;7.22;2.67;;;;;;;;;;4998982;28;20071;-58
2021/12/22 03:38:40;;;;;;;6.22;2.28;;;;;;;;;;5045996;28;20033;-58
2021/12/22 03:41:07;;;;;;;4.78;2.30;;;;;;;;;;5044057;28;20465;-58
2021/12/22 03:43:33;;;;;;;5.50;2.65;;;;;;;;;;5044365;28;20033;-57
2021/12/22 03:45:58;;;;;;;5.70;3.00;;;;;;;;;;5044204;28;20033;-57
2021/12/22 03:48:25;;;;;;;5.75;2.67;;;;;;;;;;5047768;28;20067;-58
2021/12/22 03:50:51;;;;;;;8.38;2.85;;;;;;;;;;5048403;28;20027;-59
2021/12/22 03:53:16;;;;;;;5.00;2.50;;;;;;;;;;5047894;28;20111;-57
2021/12/22 03:55:42;;;;;;;6.95;2.55;;;;;;;;;;5046656;28;20503;-57
2021/12/22 03:58:07;;;;;;;4.65;2.33;;;;;;;;;;5048226;28;20049;-55
2021/12/22 04:00:37;;;;;;;7.15;2.40;;;;;;;;;;5046514;28;20029;-59
2021/12/22 04:03:03;;;;;;;7.22;2.90;;;;;;;;;;5047134;28;20116;-57
2021/12/22 04:05:29;;;;;;;5.20;2.58;;;;;;;;;;5047642;28;20053;-53
2021/12/22 04:07:55;;;;;;;6.85;2.28;;;;;;;;;;5049371;28;20885;-57
2021/12/22 04:10:22;;;;;;;4.28;2.40;;;;;;;;;;5047914;28;20036;-55
2021/12/22 04:12:51;;;;;;;10.25;2.78;;;;;;;;;;5048191;28;20040;-57
2021/12/22 04:15:18;;;;;;;5.65;2.70;;;;;;;;;;5049269;28;20080;-54
2021/12/22 04:17:44;;;;;;;12.10;2.40;;;;;;;;;;5049595;28;20477;-56
2021/12/22 04:20:10;;;;;;;4.90;2.67;;;;;;;;;;5048980;28;20083;-57
2021/12/22 04:22:36;;;;;;;3.13;2.20;;;;;;;;;;5048062;28;20060;-58
2021/12/22 04:25:03;;;;;;;8.70;2.83;;;;;;;;;;5045677;28;20040;-56
2021/12/22 04:27:28;;;;;;;5.63;2.67;;;;;;;;;;5047283;28;20446;-55
2021/12/22 04:29:53;;;;;;;5.25;2.45;;;;;;;;;;5047219;28;20059;-59
2021/12/22 04:32:19;;;;;;;4.90;2.30;;;;;;;;;;5061730;28;20056;-56
2021/12/22 04:34:44;;;;;;;4.82;2.55;;;;;;;;;;5046995;28;20477;-59
2021/12/22 04:37:10;;;;;;;4.57;2.50;;;;;;;;;;5032557;28;20063;-58
2021/12/22 04:39:35;;;;;;;8.40;2.88;;;;;;;;;;5026455;28;20056;-59
2021/12/22 04:42:01;;;;;;;4.55;2.30;;;;;;;;;;5024884;28;20374;-56
2021/12/22 04:44:26;;;;;;;8.40;2.53;;;;;;;;;;5026265;28;20143;-54
2021/12/22 04:46:52;;;;;;;5.25;2.50;;;;;;;;;;5027342;28;20021;-59
2021/12/22 04:49:17;;;;;;;7.18;2.65;;;;;;;;;;5009934;28;20029;-55
2021/12/22 04:51:49;;;;;;;5.82;2.65;;;;;;;;;;5026022;28;20568;-59
2021/12/22 04:54:31;;;;;;;10.70;2.55;;;;;;;;;;5025580;28;20060;-55
2021/12/22 04:56:57;;;;;;;11.20;2.78;;;;;;;;;;5027047;28;20079;-58
2021/12/22 04:59:23;;;;;;;6.03;2.58;;;;;;;;;;5025173;28;20481;-55
2021/12/22 05:01:48;;;;;;;4.97;2.70;;;;;;;;;;5009685;28;20087;-56
2021/12/22 05:04:14;;;;;;;5.00;2.78;;;;;;;;;;5025077;28;20043;-58
2021/12/22 05:06:40;;;;;;;6.45;2.67;;;;;;;;;;5026918;28;20041;-57
2021/12/22 05:09:06;;;;;;;7.28;3.00;;;;;;;;;;5026860;28;20029;-55
2021/12/22 05:11:32;;;;;;;6.68;2.88;;;;;;;;;;5024590;28;20026;-55
2021/12/22 05:13:58;;;;;;;8.63;2.72;;;;;;;;;;5025715;28;20159;-48
2021/12/22 05:16:23;;;;;;;6.60;3.33;;;;;;;;;;5026279;28;20124;-45
2021/12/22 05:21:47;;;;;;;6.03;3.15;;;;;;;;;;5000467;28;20136;-47
2021/12/22 05:24:12;;;;;;;8.07;2.85;;;;;;;;;;5023294;28;20116;-47
2021/12/22 05:26:38;;;;;;;7.35;2.63;;;;;;;;;;5022155;28;20069;-47
2021/12/22 05:29:04;;;;;;;8.18;3.38;;;;;;;;;;5022386;28;20056;-45
2021/12/22 05:31:29;;;;;;;7.88;3.40;;;;;;;;;;5008881;28;20075;-45
2021/12/22 05:33:55;;;;;;;17.13;4.40;;;;;;;;;;5022945;28;20022;-50
2021/12/22 05:36:21;;;;;;;14.85;6.95;;;;;;;;;;5024571;28;20037;-51
2021/12/22 05:38:46;;;;;;;18.33;6.45;;;;;;;;;;5009593;28;20048;-49
2021/12/22 05:41:12;;;;;;;18.10;6.80;;;;;;;;;;5008366;28;20075;-52
2021/12/22 05:43:37;;;;;;;10.85;4.78;;;;;;;;;;5009961;28;20037;-44
2021/12/22 05:46:03;;;;;;;9.90;3.50;;;;;;;;;;5023866;28;20037;-50
2021/12/22 05:48:28;;;;;;;7.15;3.67;;;;;;;;;;5023059;28;20036;-44
2021/12/22 05:50:57;;;;;;;11.63;3.47;;;;;;;;;;5023989;28;20025;-51
2021/12/22 05:53:23;;;;;;;10.68;3.90;;;;;;;;;;5023897;28;20425;-50
2021/12/22 05:55:49;;;;;;;9.20;3.65;;;;;;;;;;5024652;28;20031;-50
2021/12/22 05:58:14;;;;;;;9.05;4.00;;;;;;;;;;5023977;28;20075;-49
2021/12/22 06:00:41;;;;;;;14.25;4.80;;;;;;;;;;5024651;28;20520;-46
2021/12/22 06:03:06;;;;;;;9.90;4.57;;;;;;;;;;5024845;28;20721;-45
2021/12/22 06:05:31;;;;;;;13.20;5.18;;;;;;;;;;5024546;28;20425;-49
2021/12/22 06:07:57;;;;;;;10.73;4.75;;;;;;;;;;5023672;28;20025;-46
2021/12/22 06:10:22;;;;;;;8.13;3.70;;;;;;;;;;5023433;28;20025;-50
2021/12/22 06:12:48;;;;;;;8.73;3.80;;;;;;;;;;5023950;28;20148;-45
2021/12/22 06:15:13;;;;;;;11.50;4.05;;;;;;;;;;5008409;28;20053;-48
2021/12/22 06:17:39;;;;;;;7.93;3.88;;;;;;;;;;5026049;28;20041;-47
2021/12/22 06:20:05;;;;;;;8.10;3.60;;;;;;;;;;5008468;28;20025;-49
2021/12/22 06:22:32;;;;;;;9.13;3.92;;;;;;;;;;5009783;28;20033;-51
2021/12/22 06:24:58;;;;;;;10.93;3.55;;;;;;;;;;5024098;28;20033;-47
2021/12/22 06:27:23;;;;;;;11.02;4.32;;;;;;;;;;5022650;28;20029;-50
2021/12/22 06:29:49;;;;;;;6.18;3.22;;;;;;;;;;5024365;28;20013;-49
2021/12/22 06:32:15;;;;;;;14.02;3.20;;;;;;;;;;5024424;28;20033;-46
2021/12/22 06:34:40;;;;;;;9.07;3.92;;;;;;;;;;5024485;28;20017;-44
2021/12/22 06:37:06;;;;;;;18.63;6.70;;;;;;;;;;5023707;28;21371;-47
2021/12/22 06:39:32;;;;;;;28.02;9.65;;;;;;;;;;5023342;28;20025;-46
2021/12/22 06:41:58;;;;;;;23.33;9.63;;;;;;;;;;5022349;28;20656;-47
2021/12/22 06:44:23;;;;;;;18.48;6.90;;;;;;;;;;5008615;28;20033;-46
2021/12/22 06:46:50;;;;;;;20.33;7.80;;;;;;;;;;5025326;28;20022;-51
2021/12/22 06:49:16;;;;;;;22.20;8.23;;;;;;;;;;5024302;28;20104;-48
2021/12/22 06:51:41;;;;;;;16.20;6.63;;;;;;;;;;5024232;28;20124;-45
2021/12/22 06:54:07;;;;;;;16.67;6.40;;;;;;;;;;5022991;28;20393;-43
2021/12/22 06:56:33;;;;;;;12.18;5.55;;;;;;;;;;5022643;28;20072;-47
2021/12/22 06:59:00;;;;;;;9.98;4.60;;;;;;;;;;5023323;28;20087;-47
2021/12/22 07:01:25;;;;;;;6.70;3.85;;;;;;;;;;5021781;28;20037;-44
2021/12/22 07:03:50;;;;;;;14.93;4.75;;;;;;;;;;5024699;28;20033;-46
2021/12/22 07:06:16;;;;;;;13.90;4.07;;;;;;;;;;5023388;28;20025;-46
2021/12/22 07:08:42;;;;;;;9.25;3.72;;;;;;;;;;5023663;28;20033;-44
2021/12/22 07:11:09;;;;;;;9.35;4.10;;;;;;;;;;5020730;28;20059;-50
2021/12/22 07:13:35;;;;;;;11.15;4.40;;;;;;;;;;5007724;28;20025;-49
2021/12/22 07:16:01;;;;;;;9.27;3.95;;;;;;;;;;5022506;28;20120;-50
2021/12/22 07:18:26;;;;;;;6.78;4.07;;;;;;;;;;5022481;28;20117;-48
2021/12/22 07:20:52;;;;;;;10.93;4.30;;;;;;;;;;5022391;28;20273;-46
2021/12/22 07:23:17;;;;;;;9.75;4.13;;;;;;;;;;5027052;28;20033;-45
2021/12/22 07:25:42;;;;;;;15.20;5.68;;;;;;;;;;5027043;28;20045;-48
2021/12/22 07:28:10;;;;;;;11.00;4.97;;;;;;;;;;5026515;28;20501;-45
2021/12/22 07:30:39;;;;;;;11.20;4.50;;;;;;;;;;5026627;28;20039;-49
2021/12/22 07:33:05;;;;;;;5.88;3.85;;;;;;;;;;5026256;28;20127;-50
2021/12/22 07:35:39;;;;;;;11.63;5.22;;;;;;;;;;5024307;28;20025;-44
2021/12/22 07:38:30;;;;;;;14.90;4.72;;;;;;;;;;5013563;28;20040;-49
2021/12/22 07:40:57;;;;;;;13.20;4.43;;;;;;;;;;5013205;28;20508;-48
2021/12/22 07:43:23;;;;;;;10.07;4.70;;;;;;;;;;5029418;28;20517;-46
2021/12/22 07:45:49;;;;;;;11.40;4.82;;;;;;;;;;5025825;28;20112;-47
2021/12/22 07:48:14;;;;;;;12.65;5.82;;;;;;;;;;5029390;28;20037;-48
2021/12/22 07:50:40;;;;;;;9.27;4.93;;;;;;;;;;5029534;28;20025;-49
2021/12/22 07:53:05;;;;;;;14.25;5.30;;;;;;;;;;5028876;28;20033;-50
2021/12/22 07:55:31;;;;;;;9.15;4.78;;;;;;;;;;5026601;28;20091;-48
2021/12/22 07:57:56;;;;;;;12.52;4.82;;;;;;;;;;5029575;28;20037;-49
2021/12/22 08:00:22;;;;;;;14.68;6.05;;;;;;;;;;5028032;28;20049;-50
2021/12/22 08:02:47;;;;;;;19.45;5.85;;;;;;;;;;5029376;28;20049;-47
2021/12/22 08:05:13;;;;;;;13.98;6.35;;;;;;;;;;5027349;28;20159;-45
2021/12/22 08:07:38;;;;;;;10.02;5.03;;;;;;;;;;5029193;28;20029;-45
2021/12/22 08:10:06;;;;;;;12.45;5.00;;;;;;;;;;5028035;28;20033;-46
2021/12/22 08:12:31;;;;;;;10.18;5.55;;;;;;;;;;5024520;28;20036;-49
2021/12/22 08:14:57;;;;;;;11.35;5.65;;;;;;;;;;5026834;28;20486;-51
2021/12/22 08:17:23;;;;;;;12.20;5.57;;;;;;;;;;5013793;28;20095;-48
2021/12/22 08:19:49;;;;;;;15.25;5.97;;;;;;;;;;5027307;28;20483;-50
2021/12/22 08:22:15;;;;;;;13.07;5.93;;;;;;;;;;5025987;28;20040;-48
2021/12/22 08:24:40;;;;;;;14.02;6.05;;;;;;;;;;5028376;28;20035;-47
2021/12/22 08:27:06;;;;;;;14.35;5.68;;;;;;;;;;5026372;28;20124;-48
2021/12/22 08:29:31;;;;;;;12.75;6.57;;;;;;;;;;5031786;28;20025;-46
2021/12/22 08:31:57;;;;;;;17.15;7.05;;;;;;;;;;5022360;28;20041;-47
2021/12/22 08:34:27;;;;;;;23.00;8.75;;;;;;;;;;5019722;28;20118;-49
2021/12/22 08:39:37;;;;;;;32.90;11.85;;;;;;;;;;5017553;28;20064;-49
2021/12/22 08:42:03;;;;;;;31.15;12.45;;;;;;;;;;5018098;28;20477;-48
2021/12/22 08:44:28;;;;;;;27.98;10.75;;;;;;;;;;5016299;28;20029;-49
2021/12/22 08:46:56;;;;;;;28.30;9.70;;;;;;;;;;5019015;28;20080;-49
2021/12/22 08:49:22;;;;;;;18.05;8.10;;;;;;;;;;5018328;28;20053;-47
2021/12/22 08:51:48;;;;;;;15.65;6.88;;;;;;;;;;5020640;28;20037;-46
2021/12/22 08:54:14;;;;;;;13.63;6.85;;;;;;;;;;5018221;28;20045;-46
2021/12/22 08:56:40;;;;;;;16.20;6.80;;;;;;;;;;5022103;28;20036;-50
2021/12/22 08:59:08;;;;;;;16.60;6.75;;;;;;;;;;5020081;28;20635;-45
2021/12/22 09:01:34;;;;;;;18.95;6.82;;;;;;;;;;5018369;28;20312;-51
2021/12/22 09:04:00;;;;;;;12.60;7.07;;;;;;;;;;5019037;28;20068;-47
2021/12/22 09:06:27;;;;;;;12.60;6.50;;;;;;;;;;5016745;28;20759;-52
2021/12/22 09:08:53;;;;;;;15.93;6.30;;;;;;;;;;5021807;28;20481;-47
2021/12/22 09:11:20;;;;;;;16.73;6.15;;;;;;;;;;5026260;28;20033;-47
2021/12/22 09:13:45;;;;;;;16.27;6.10;;;;;;;;;;5028181;28;20034;-47
2021/12/22 09:16:11;;;;;;;15.25;6.80;;;;;;;;;;5027939;28;20052;-49
2021/12/22 09:18:37;;;;;;;18.45;7.00;;;;;;;;;;5027130;28;20053;-48
2021/12/22 09:21:05;;;;;;;18.58;7.57;;;;;;;;;;5025428;28;20489;-47
2021/12/22 09:23:30;;;;;;;11.25;6.82;;;;;;;;;;5026811;28;20287;-47
2021/12/22 09:25:55;;;;;;;16.38;7.38;;;;;;;;;;5026804;28;20528;-47
2021/12/22 09:28:21;;;;;;;14.93;6.82;;;;;;;;;;5026171;28;20037;-46
2021/12/22 09:30:46;;;;;;;14.48;7.78;;;;;;;;;;5025229;28;21003;-46
2021/12/22 09:33:15;;;;;;;14.00;6.85;;;;;;;;;;5029587;28;20029;-46
2021/12/22 09:35:42;;;;;;;14.20;7.30;;;;;;;;;;5027417;28;20036;-47
2021/12/22 09:38:08;;;;;;;14.10;7.07;;;;;;;;;;5027148;28;20029;-44
2021/12/22 09:40:34;;;;;;;18.02;7.53;;;;;;;;;;5024409;28;20040;-51
2021/12/22 09:43:00;;;;;;;15.30;7.65;;;;;;;;;;5024654;28;20477;-45
2021/12/22 09:45:26;;;;;;;13.40;7.50;;;;;;;;;;5024919;28;20029;-45
2021/12/22 09:50:46;;;;;;;12.93;6.90;;;;;;;;;;5024663;28;20033;-47
2021/12/22 09:53:16;;;;;;;13.82;7.47;;;;;;;;;;5025638;28;20375;-48
2021/12/22 09:55:42;;;;;;;13.38;7.40;;;;;;;;;;5024722;28;20036;-52
2021/12/22 09:58:10;;;;;;;15.68;8.15;;;;;;;;;;5023284;28;20037;-52
2021/12/22 10:00:35;;;;;;;12.73;7.13;;;;;;;;;;5024929;28;20079;-52
2021/12/22 10:03:05;;;;;;;17.38;7.82;;;;;;;;;;5025659;28;20428;-46
2021/12/22 10:05:31;;;;;;;13.50;7.57;;;;;;;;;;5025329;28;20029;-50
2021/12/22 10:08:08;;;;;;;15.00;7.43;;;;;;;;;;5026016;28;20088;-46
2021/12/22 10:10:36;;;;;;;16.38;8.02;;;;;;;;;;5025190;28;20037;-50
2021/12/22 10:13:10;;;;;;;16.85;8.43;;;;;;;;;;5024838;28;20449;-49
2021/12/22 10:15:36;;;;;;;;;;;;;;;;;;5026132;28;20096;-45
2021/12/22 10:18:08;;;;;;;18.00;8.07;;;;;;;;;;5024231;28;19921;-49
2021/12/22 10:20:33;;;;;;;15.90;7.95;;;;;;;;;;5026142;28;20036;-51
2021/12/22 10:22:58;;;;;;;13.13;7.55;;;;;;;;;;5024797;28;20033;-48
2021/12/22 10:25:29;;;;;;;15.77;7.90;;;;;;;;;;5026086;28;20052;-48
2021/12/22 10:28:04;;;;;;;16.50;7.57;;;;;;;;;;5007675;28;20087;-48
2021/12/22 10:30:36;;;;;;;16.40;7.97;;;;;;;;;;5024267;28;20105;-48
2021/12/22 10:33:16;;;;;;;20.40;7.53;;;;;;;;;;5023624;28;20029;-51
2021/12/22 10:35:44;;;;;;;12.35;7.78;;;;;;;;;;5022417;28;20124;-46
2021/12/22 10:38:12;;;;;;;10.48;6.72;;;;;;;;;;5023261;28;20390;-50
2021/12/22 10:40:39;;;;;;;17.55;7.85;;;;;;;;;;5021525;28;20021;-47
2021/12/22 10:43:05;;;;;;;19.42;7.75;;;;;;;;;;5025122;28;20037;-52
2021/12/22 10:45:34;;;;;;;17.58;8.20;;;;;;;;;;5021710;28;20037;-49
2021/12/22 10:50:52;;;;;;;19.05;7.13;;;;;;;;;;5023297;28;20036;-50
2021/12/22 10:53:17;;;;;;;13.95;7.45;;;;;;;;;;5023684;28;20104;-50
2021/12/22 10:55:45;;;;;;;14.35;8.27;;;;;;;;;;5026930;28;20405;-48
2021/12/22 10:58:34;;;;;;;15.75;7.68;;;;;;;;;;5028756;28;20021;-48
2021/12/22 11:01:17;;;;;;;16.33;7.93;;;;;;;;;;5028766;28;20099;-49
2021/12/22 11:03:51;;;;;;;14.98;7.65;;;;;;;;;;5028392;28;20024;-48
2021/12/22 11:06:23;;;;;;;12.65;7.93;;;;;;;;;;5028714;28;20033;-49
2021/12/22 11:08:56;;;;;;;22.27;9.18;;;;;;;;;;5029319;28;20033;-48
2021/12/22 11:11:21;;;;;;;17.85;8.40;;;;;;;;;;5026427;28;20036;-46
2021/12/22 11:14:02;;;;;;;16.92;8.00;;;;;;;;;;5029345;28;20041;-47
2021/12/22 11:16:28;;;;;;;22.90;8.32;;;;;;;;;;5027713;28;20025;-50
2021/12/22 11:18:53;;;;;;;14.15;8.73;;;;;;;;;;5028778;28;20509;-46
2021/12/22 11:21:30;;;;;;;16.02;8.32;;;;;;;;;;5028197;28;20032;-49
2021/12/22 11:23:55;;;;;;;18.92;8.52;;;;;;;;;;5030318;28;20026;-45
2021/12/22 11:26:21;;;;;;;18.48;8.40;;;;;;;;;;5027352;28;20095;-46
2021/12/22 11:28:47;;;;;;;22.15;8.73;;;;;;;;;;5027488;28;20026;-45
2021/12/22 11:31:12;;;;;;;14.02;8.18;;;;;;;;;;5026736;28;20535;-53
2021/12/22 11:33:40;;;;;;;16.25;8.35;;;;;;;;;;5028680;28;20043;-52
2021/12/22 11:36:07;;;;;;;13.85;8.38;;;;;;;;;;5027981;28;20112;-53
2021/12/22 11:38:33;;;;;;;15.90;7.75;;;;;;;;;;5028862;28;20086;-52
2021/12/22 11:41:13;;;;;;;16.42;8.10;;;;;;;;;;5027385;28;20030;-46
2021/12/22 11:43:41;;;;;;;15.23;8.20;;;;;;;;;;5026854;28;20075;-46
2021/12/22 11:46:07;;;;;;;16.20;8.00;;;;;;;;;;5027994;28;20029;-50
2021/12/22 11:48:34;;;;;;;13.93;8.27;;;;;;;;;;5026632;28;20037;-49
2021/12/22 11:51:00;;;;;;;16.77;7.85;;;;;;;;;;5027127;28;20108;-46
2021/12/22 11:53:26;;;;;;;16.20;8.45;;;;;;;;;;5027472;28;20508;-47
2021/12/22 11:55:57;;;;;;;19.10;9.15;;;;;;;;;;5028381;28;20024;-50
2021/12/22 11:58:32;;;;;;;17.83;8.70;;;;;;;;;;5027728;28;20049;-50
2021/12/22 12:01:02;;;;;;;16.60;8.73;;;;;;;;;;5030383;28;20025;-47
2021/12/22 12:03:36;;;;;;;22.52;8.90;;;;;;;;;;5025731;28;20447;-46
2021/12/22 12:06:17;;;;;;;16.90;8.85;;;;;;;;;;5027104;28;20063;-49
2021/12/22 12:08:51;;;;;;;21.90;9.05;;;;;;;;;;5014724;28;20061;-52
2021/12/22 12:11:37;;;;;;;20.15;7.93;;;;;;;;;;5027078;28;20033;-48
2021/12/22 12:14:10;;;;;;;13.15;8.20;;;;;;;;;;5028614;28;20060;-48
2021/12/22 12:22:28;;;;;;;17.40;8.40;;;;;;;;;;5029061;28;20439;-52
2021/12/22 12:24:54;;;;;;;15.38;7.95;;;;;;;;;;5028588;28;20075;-48
2021/12/22 12:27:35;;;;;;;17.30;8.05;;;;;;;;;;5027671;28;20700;-52
2021/12/22 12:30:00;;;;;;;19.65;8.38;;;;;;;;;;5027636;28;20083;-52
2021/12/22 12:32:51;;;;;;;11.73;7.70;;;;;;;;;;5011382;28;20638;-49
2021/12/22 12:38:14;;;;;;;18.83;8.73;;;;;;;;;;5028787;28;20060;-49
2021/12/22 12:40:55;;;;;;;16.38;7.95;;;;;;;;;;5027713;28;20029;-50
2021/12/22 12:43:45;;;;;;;15.85;8.90;;;;;;;;;;5027727;28;20061;-52
2021/12/22 12:46:19;;;;;;;13.82;7.93;;;;;;;;;;5028327;28;20108;-48
2021/12/22 12:48:52;;;;;;;17.13;8.80;;;;;;;;;;5027793;28;20064;-52
2021/12/22 12:51:29;;;;;;;15.68;8.43;;;;;;;;;;5026809;28;20025;-45
2021/12/22 12:53:58;;;;;;;14.23;8.35;;;;;;;;;;5010885;28;20119;-51
2021/12/22 12:56:36;;;;;;;16.33;8.13;;;;;;;;;;5010700;28;20037;-51
2021/12/22 12:59:02;;;;;;;13.35;7.97;;;;;;;;;;5028575;28;20033;-51
2021/12/22 13:01:50;;;;;;;23.38;8.90;;;;;;;;;;5027800;28;20041;-47
2021/12/22 13:04:23;;;;;;;15.73;8.57;;;;;;;;;;5026538;28;20500;-48
2021/12/22 13:06:50;;;;;;;18.38;8.90;;;;;;;;;;5027923;28;20041;-46
2021/12/22 13:09:22;;;;;;;18.40;8.73;;;;;;;;;;5026858;28;20512;-47
2021/12/22 13:12:02;;;;;;;16.17;8.13;;;;;;;;;;5027667;28;20033;-52
2021/12/22 13:17:19;;;;;;;15.13;8.05;;;;;;;;;;5027310;28;20043;-51
2021/12/22 13:19:47;;;;;;;16.85;9.55;;;;;;;;;;5026218;28;20111;-47
2021/12/22 13:22:19;;;;;;;15.55;8.65;;;;;;;;;;5025468;28;20029;-49
2021/12/22 13:24:45;;;;;;;16.55;8.65;;;;;;;;;;5028294;28;20029;-49
2021/12/22 13:27:10;;;;;;;17.13;8.63;;;;;;;;;;5024769;28;20037;-48
2021/12/22 13:29:39;;;;;;;16.75;8.07;;;;;;;;;;5026618;28;20536;-50
2021/12/22 13:32:08;;;;;;;16.45;8.23;;;;;;;;;;5026710;28;20025;-48
2021/12/22 13:34:44;;;;;;;14.38;8.63;;;;;;;;;;5024861;28;20215;-54
2021/12/22 13:37:10;;;;;;;21.17;9.65;;;;;;;;;;5025578;28;20033;-51
2021/12/22 13:39:44;;;;;;;15.63;9.13;;;;;;;;;;5024743;28;20127;-48
2021/12/22 13:42:10;;;;;;;16.08;8.52;;;;;;;;;;5025280;28;20368;-47
2021/12/22 13:44:37;;;;;;;14.95;8.98;;;;;;;;;;5025035;28;20390;-48
2021/12/22 13:47:03;;;;;;;17.38;8.98;;;;;;;;;;5026169;28;20037;-49
2021/12/22 13:49:29;;;;;;;15.43;9.40;;;;;;;;;;5027045;28;20372;-48
2021/12/22 13:51:55;;;;;;;19.88;9.30;;;;;;;;;;5026733;28;20374;-52
2021/12/22 13:54:23;;;;;;;14.95;9.10;;;;;;;;;;5026195;28;20025;-53
2021/12/22 13:56:50;;;;;;;17.30;9.18;;;;;;;;;;5024121;28;20401;-47
2021/12/22 13:59:22;;;;;;;17.48;9.13;;;;;;;;;;5026860;28;20029;-47
2021/12/22 14:01:52;;;;;;;18.58;9.10;;;;;;;;;;5027418;28;20524;-47
2021/12/22 14:04:25;;;;;;;15.75;9.20;;;;;;;;;;5027055;28;20083;-52
2021/12/22 14:07:12;;;;;;;19.88;9.07;;;;;;;;;;5026118;28;20548;-45
2021/12/22 14:09:43;;;;;;;16.98;8.90;;;;;;;;;;5026178;28;20033;-45
2021/12/22 14:12:20;;;;;;;22.15;9.18;;;;;;;;;;5026267;28;20036;-50
2021/12/22 14:14:47;;;;;;;14.88;8.98;;;;;;;;;;5024726;28;20037;-48
2021/12/22 14:17:35;;;;;;;15.18;9.07;;;;;;;;;;5025850;28;20022;-49
2021/12/22 14:20:22;;;;;;;30.52;8.82;;;;;;;;;;5025384;28;20234;-48
2021/12/22 14:23:01;;;;;;;19.45;8.98;;;;;;;;;;5025283;28;20037;-51
2021/12/22 14:25:29;;;;;;;15.15;8.82;;;;;;;;;;5027321;28;20025;-51
2021/12/22 14:28:15;;;;;;;22.30;9.93;;;;;;;;;;5024743;28;20029;-49
2021/12/22 14:30:42;;;;;;;16.67;8.65;;;;;;;;;;5025439;28;20057;-48
2021/12/22 14:33:21;;;;;;;17.98;9.43;;;;;;;;;;5008446;28;20055;-51
2021/12/22 14:35:57;;;;;;;18.48;9.75;;;;;;;;;;5025692;28;20069;-49
2021/12/22 14:38:27;;;;;;;16.90;9.10;;;;;;;;;;5027134;28;20075;-49
2021/12/22 14:40:58;;;;;;;17.48;9.50;;;;;;;;;;5023951;28;20026;-50
2021/12/22 14:43:34;;;;;;;14.40;9.30;;;;;;;;;;5025290;28;20053;-44
2021/12/22 14:45:59;;;;;;;14.50;8.48;;;;;;;;;;5024458;28;20042;-52
2021/12/22 14:48:30;;;;;;;16.67;9.63;;;;;;;;;;5025937;28;20032;-53
2021/12/22 14:51:10;;;;;;;18.10;9.68;;;;;;;;;;5024621;28;20033;-47
2021/12/22 14:53:41;;;;;;;17.77;9.95;;;;;;;;;;5026277;28;20104;-47
2021/12/22 14:56:12;;;;;;;19.55;9.30;;;;;;;;;;5023862;28;20137;-50
2021/12/22 14:58:39;;;;;;;22.23;9.50;;;;;;;;;;5023688;28;20449;-49
2021/12/22 15:01:09;;;;;;;22.38;8.93;;;;;;;;;;5009352;28;20052;-48
2021/12/22 15:03:35;;;;;;;17.65;9.77;;;;;;;;;;5024861;28;20033;-54
2021/12/22 15:06:09;;;;;;;18.85;9.77;;;;;;;;;;5009617;28;20752;-51
2021/12/22 15:08:35;;;;;;;21.23;10.27;;;;;;;;;;5025398;28;20037;-47
2021/12/22 15:11:02;;;;;;;19.55;10.32;;;;;;;;;;5025539;28;20448;-49
2021/12/22 15:13:27;;;;;;;19.30;10.93;;;;;;;;;;5024234;28;20068;-52
2021/12/22 15:15:53;;;;;;;18.52;9.98;;;;;;;;;;5025490;28;20033;-50
2021/12/22 15:18:20;;;;;;;19.95;10.10;;;;;;;;;;5025084;28;20037;-47
2021/12/22 15:20:46;;;;;;;21.00;10.30;;;;;;;;;;5025449;28;20501;-51